createdAt,value
2022-12-23T00:02:21.772Z,80.14
2022-12-23T00:04:48.852Z,80.33
2022-12-23T00:07:15.883Z,82.09
2022-12-23T00:09:42.851Z,80.71
2022-12-23T00:12:28.496Z,81.08
2022-12-23T00:15:07.914Z,81.38
2022-12-23T00:17:37.643Z,80.31
2022-12-23T00:20:06.333Z,80.47
2022-12-23T00:22:51.767Z,80.02
2022-12-23T00:25:19.095Z,80.81
2022-12-23T00:28:01.792Z,80.70
2022-12-23T00:30:28.965Z,80.87
2022-12-23T00:32:56.045Z,80.04
2022-12-23T00:35:23.030Z,79.63
2022-12-23T00:37:49.944Z,79.53
2022-12-23T00:40:35.795Z,79.57
2022-12-23T00:43:02.955Z,78.63
2022-12-23T00:45:29.991Z,77.71
2022-12-23T00:48:15.455Z,77.36
2022-12-23T00:50:43.544Z,77.05
2022-12-23T00:53:10.630Z,76.52
2022-12-23T00:55:37.697Z,76.76
2022-12-23T00:58:04.852Z,76.92
2022-12-23T01:00:50.691Z,76.14
2022-12-23T01:03:36.175Z,76.38
2022-12-23T01:06:03.835Z,76.00
2022-12-23T01:08:31.065Z,75.79
2022-12-23T01:11:02.323Z,75.46
2022-12-23T01:13:29.768Z,75.01
2022-12-23T01:16:07.443Z,75.59
2022-12-23T01:18:37.395Z,75.22
2022-12-23T01:21:07.515Z,75.18
2022-12-23T01:23:35.539Z,75.37
2022-12-23T01:26:04.802Z,75.09
2022-12-23T01:28:32.943Z,75.71
2022-12-23T01:31:01.288Z,74.97
2022-12-23T01:33:28.972Z,75.44
2022-12-23T01:36:08.443Z,75.65
2022-12-23T01:38:35.599Z,75.87
2022-12-23T01:41:02.742Z,75.69
2022-12-23T01:43:50.574Z,75.78
2022-12-23T01:46:18.875Z,74.81
2022-12-23T01:48:50.872Z,74.78
2022-12-23T01:51:29.507Z,74.90
2022-12-23T01:54:01.505Z,74.92
2022-12-23T01:56:46.927Z,74.52
2022-12-23T01:59:35.314Z,74.22
2022-12-23T02:02:21.510Z,74.38
2022-12-23T02:04:50.630Z,75.04
2022-12-23T02:07:36.847Z,74.69
2022-12-23T02:10:05.899Z,75.21
2022-12-23T02:13:00.505Z,74.66
2022-12-23T02:15:48.976Z,74.30
2022-12-23T02:18:28.032Z,74.81
2022-12-23T02:21:27.884Z,74.58
2022-12-23T02:24:20.178Z,74.72
2022-12-23T02:27:05.343Z,75.61
2022-12-23T02:29:56.069Z,75.37
2022-12-23T02:32:50.213Z,75.17
2022-12-23T02:35:45.358Z,75.82
2022-12-23T02:38:17.422Z,76.24
2022-12-23T02:41:05.952Z,76.17
2022-12-23T02:43:50.229Z,76.07
2022-12-23T02:46:35.631Z,76.95
2022-12-23T02:49:12.364Z,76.40
2022-12-23T02:51:42.979Z,76.60
2022-12-23T02:54:15.095Z,77.32
2022-12-23T02:56:46.613Z,77.43
2022-12-23T02:59:21.879Z,78.82
2022-12-23T03:01:50.362Z,78.56
2022-12-23T03:04:17.569Z,79.92
2022-12-23T03:06:48.871Z,81.08
2022-12-23T03:09:27.131Z,83.02
2022-12-23T03:12:03.738Z,84.80
2022-12-23T03:14:49.016Z,85.67
2022-12-23T03:17:46.976Z,87.42
2022-12-23T03:20:13.843Z,88.08
2022-12-23T03:22:50.064Z,88.84
2022-12-23T03:25:35.932Z,89.74
2022-12-23T03:28:22.072Z,90.22
2022-12-23T03:30:53.640Z,90.90
2022-12-23T03:33:27.179Z,90.72
2022-12-23T03:36:01.523Z,92.05
2022-12-23T03:38:30.920Z,92.72
2022-12-23T03:41:05.360Z,93.10
2022-12-23T03:43:51.090Z,94.08
2022-12-23T03:46:32.083Z,93.25
2022-12-23T03:49:03.937Z,93.85
2022-12-23T03:51:55.612Z,94.06
2022-12-23T03:54:36.684Z,95.25
2022-12-23T03:57:07.767Z,94.66
2022-12-23T03:59:43.022Z,95.63
2022-12-23T04:02:15.045Z,96.01
2022-12-23T04:05:04.381Z,95.69
2022-12-23T04:07:37.049Z,95.71
2022-12-23T04:10:05.271Z,95.85
2022-12-23T04:12:33.433Z,95.52
2022-12-23T04:15:00.706Z,95.81
2022-12-23T04:17:29.379Z,95.93
2022-12-23T04:19:56.923Z,96.03
2022-12-23T04:22:24.193Z,96.27
2022-12-23T04:24:51.183Z,95.09
2022-12-23T04:27:18.222Z,96.50
2022-12-23T04:29:45.596Z,94.84
2022-12-23T04:32:12.832Z,95.83
2022-12-23T04:34:39.843Z,96.00
2022-12-23T04:37:07.293Z,96.02
2022-12-23T04:39:34.380Z,96.38
2022-12-23T04:42:01.368Z,97.01
2022-12-23T04:44:28.338Z,96.95
2022-12-23T04:46:55.839Z,96.54
2022-12-23T04:49:22.936Z,96.40
2022-12-23T04:51:49.885Z,95.75
2022-12-23T04:54:18.563Z,96.14
2022-12-23T04:56:45.537Z,96.29
2022-12-23T04:59:12.504Z,96.97
2022-12-23T05:01:40.119Z,96.50
2022-12-23T05:04:07.454Z,97.11
2022-12-23T05:06:34.530Z,97.00
2022-12-23T05:09:01.541Z,97.74
2022-12-23T05:11:28.584Z,97.53
2022-12-23T05:13:56.013Z,97.62
2022-12-23T05:16:23.323Z,97.08
2022-12-23T05:18:50.484Z,95.99
2022-12-23T05:21:17.944Z,96.11
2022-12-23T05:23:45.140Z,96.66
2022-12-23T05:26:12.055Z,95.56
2022-12-23T05:28:39.078Z,94.10
2022-12-23T05:31:08.200Z,94.96
2022-12-23T05:33:35.861Z,94.54
2022-12-23T05:36:03.364Z,94.86
2022-12-23T05:38:30.447Z,94.22
2022-12-23T05:40:58.110Z,95.22
2022-12-23T05:43:25.636Z,95.60
2022-12-23T05:45:53.113Z,95.69
2022-12-23T05:48:20.279Z,95.21
2022-12-23T05:50:51.366Z,95.38
2022-12-23T05:53:19.834Z,95.72
2022-12-23T05:55:47.282Z,96.88
2022-12-23T05:58:14.705Z,96.61
2022-12-23T06:00:41.702Z,96.12
2022-12-23T06:03:09.070Z,95.30
2022-12-23T06:05:38.000Z,95.73
2022-12-23T06:08:11.883Z,96.21
2022-12-23T06:10:38.942Z,95.20
2022-12-23T06:13:06.004Z,95.76
2022-12-23T06:15:33.015Z,96.57
2022-12-23T06:18:00.043Z,95.70
2022-12-23T06:20:27.480Z,95.96
2022-12-23T06:22:54.907Z,95.86
2022-12-23T06:25:21.855Z,95.14
2022-12-23T06:27:48.923Z,96.10
2022-12-23T06:30:16.617Z,96.29
2022-12-23T06:32:43.869Z,94.10
2022-12-23T06:35:11.039Z,89.18
2022-12-23T06:37:38.273Z,84.15
2022-12-23T06:40:06.038Z,78.94
2022-12-23T06:42:33.462Z,76.03
2022-12-23T06:45:00.586Z,72.47
2022-12-23T06:47:27.587Z,68.82
2022-12-23T06:49:55.469Z,68.78
2022-12-23T06:52:24.255Z,66.79
2022-12-23T06:54:51.299Z,70.08
2022-12-23T06:57:18.531Z,71.45
2022-12-23T06:59:45.611Z,65.06
2022-12-23T07:02:12.934Z,63.16
2022-12-23T07:04:40.211Z,64.05
2022-12-23T07:07:07.392Z,66.77
2022-12-23T07:09:34.975Z,70.01
2022-12-23T07:12:03.873Z,72.45
2022-12-23T07:14:31.117Z,74.57
2022-12-23T07:16:58.355Z,76.20
2022-12-23T07:19:25.732Z,80.19
2022-12-23T07:21:52.901Z,80.21
2022-12-23T07:24:20.013Z,80.79
2022-12-23T07:26:47.027Z,80.62
2022-12-23T07:29:14.221Z,80.93
2022-12-23T07:31:41.526Z,82.05
2022-12-23T07:34:09.477Z,82.52
2022-12-23T07:36:36.612Z,83.33
2022-12-23T07:39:03.863Z,83.36
2022-12-23T07:41:31.341Z,83.10
2022-12-23T07:43:58.350Z,83.58
2022-12-23T07:46:25.427Z,84.64
2022-12-23T07:48:52.437Z,84.07
2022-12-23T07:51:19.614Z,85.67
2022-12-23T07:53:50.920Z,85.07
2022-12-23T07:56:19.743Z,84.78
2022-12-23T07:58:50.573Z,85.21
2022-12-23T08:01:18.352Z,84.70
2022-12-23T08:03:45.878Z,83.57
2022-12-23T08:06:14.771Z,84.43
2022-12-23T08:08:44.212Z,83.73
2022-12-23T08:11:13.301Z,83.89
2022-12-23T08:13:42.532Z,83.99
2022-12-23T08:16:10.409Z,84.94
2022-12-23T08:18:39.644Z,84.45
2022-12-23T08:21:13.579Z,84.46
2022-12-23T08:23:40.693Z,84.66
2022-12-23T08:26:13.481Z,83.97
2022-12-23T08:28:42.711Z,84.36
2022-12-23T08:31:16.981Z,84.08
2022-12-23T08:33:46.513Z,83.73
2022-12-23T08:36:22.407Z,84.99
2022-12-23T08:38:51.902Z,84.46
2022-12-23T08:41:24.926Z,83.73
2022-12-23T08:43:52.269Z,81.05
2022-12-23T08:46:20.012Z,80.60
2022-12-23T08:48:49.743Z,76.64
2022-12-23T08:51:18.885Z,75.53
2022-12-23T08:53:47.022Z,75.16
2022-12-23T08:56:20.145Z,71.85
2022-12-23T08:58:49.081Z,65.34
2022-12-23T09:01:19.561Z,61.87
2022-12-23T09:03:46.881Z,61.36
2022-12-23T09:06:29.967Z,59.17
2022-12-23T09:08:58.088Z,59.43
2022-12-23T09:11:27.215Z,59.94
2022-12-23T09:13:55.104Z,59.22
2022-12-23T09:16:23.226Z,59.42
2022-12-23T09:18:50.551Z,58.23
2022-12-23T09:21:22.565Z,56.20
2022-12-23T09:23:49.817Z,54.45
2022-12-23T09:26:34.930Z,54.86
2022-12-23T09:29:03.555Z,54.01
2022-12-23T09:31:36.736Z,52.82
2022-12-23T09:34:05.246Z,52.97
2022-12-23T09:36:32.431Z,52.71
2022-12-23T09:38:59.624Z,53.35
2022-12-23T09:41:54.893Z,51.12
2022-12-23T09:44:42.124Z,50.86
2022-12-23T09:47:17.723Z,50.15
2022-12-23T09:50:03.308Z,50.59
2022-12-23T09:52:50.113Z,49.46
2022-12-23T09:55:18.648Z,49.93
2022-12-23T09:58:01.329Z,50.90
2022-12-23T10:00:34.113Z,50.83
2022-12-23T10:03:44.442Z,50.02
2022-12-23T10:06:19.822Z,50.86
2022-12-23T10:08:50.036Z,49.37
2022-12-23T10:11:24.923Z,50.14
2022-12-23T10:13:51.723Z,50.68
2022-12-23T10:16:24.332Z,49.63
2022-12-23T10:18:57.857Z,50.07
2022-12-23T10:21:47.158Z,50.26
2022-12-23T10:24:23.231Z,50.27
2022-12-23T10:26:50.204Z,49.64
2022-12-23T10:29:20.702Z,49.52
2022-12-23T10:32:17.188Z,52.10
2022-12-23T10:35:05.371Z,50.53
2022-12-23T10:37:35.511Z,50.08
2022-12-23T10:40:20.485Z,50.47
2022-12-23T10:42:53.356Z,49.38
2022-12-23T10:45:43.405Z,49.64
2022-12-23T10:48:19.224Z,49.43
2022-12-23T10:50:55.213Z,48.03
2022-12-23T10:53:35.720Z,49.47
2022-12-23T10:56:05.303Z,48.42
2022-12-23T10:58:32.456Z,48.63
2022-12-23T11:01:09.929Z,49.45
2022-12-23T11:03:59.336Z,48.41
2022-12-23T11:06:33.151Z,48.01
2022-12-23T11:09:04.027Z,48.06
2022-12-23T11:11:55.156Z,49.51
2022-12-23T11:14:42.078Z,48.23
2022-12-23T11:17:22.240Z,48.65
2022-12-23T11:20:14.529Z,49.17
2022-12-23T11:22:50.286Z,49.04
2022-12-23T11:25:46.162Z,49.18
2022-12-23T11:28:18.112Z,48.61
2022-12-23T11:30:55.828Z,48.65
2022-12-23T11:33:32.637Z,48.54
2022-12-23T11:36:18.522Z,48.61
2022-12-23T11:39:13.433Z,48.65
2022-12-23T11:41:47.945Z,48.92
2022-12-23T11:44:14.853Z,48.25
2022-12-23T11:46:41.832Z,49.22
2022-12-23T11:49:34.192Z,48.29
2022-12-23T11:52:02.560Z,48.93
2022-12-23T11:54:31.508Z,47.90
2022-12-23T11:57:00.972Z,48.61
2022-12-23T11:59:38.596Z,49.47
2022-12-23T12:02:14.466Z,49.72
2022-12-23T12:04:43.028Z,51.36
2022-12-23T12:07:14.725Z,51.79
2022-12-23T12:09:43.857Z,51.61
2022-12-23T12:12:17.603Z,52.00
2022-12-23T12:14:49.118Z,52.15
2022-12-23T12:17:27.844Z,52.12
2022-12-23T12:20:13.775Z,52.29
2022-12-23T12:22:49.887Z,51.76
2022-12-23T12:25:37.904Z,52.83
2022-12-23T12:28:13.922Z,52.51
2022-12-23T12:31:13.689Z,52.23
2022-12-23T12:33:53.915Z,52.17
2022-12-23T12:36:26.516Z,53.54
2022-12-23T12:38:55.546Z,53.32
2022-12-23T12:41:39.844Z,53.53
2022-12-23T12:44:38.448Z,53.14
2022-12-23T12:47:36.202Z,53.69
2022-12-23T12:50:12.463Z,53.16
2022-12-23T12:52:42.708Z,53.50
2022-12-23T12:55:29.192Z,53.55
2022-12-23T12:57:56.141Z,54.09
2022-12-23T13:00:25.762Z,55.41
2022-12-23T13:03:27.695Z,54.39
2022-12-23T13:06:19.649Z,54.28
2022-12-23T13:08:46.483Z,54.48
2022-12-23T13:11:45.631Z,54.01
2022-12-23T13:14:34.964Z,54.41
2022-12-23T13:17:18.890Z,54.59
2022-12-23T13:20:03.842Z,54.54
2022-12-23T13:22:34.415Z,54.31
2022-12-23T13:25:08.779Z,55.07
2022-12-23T13:28:02.893Z,53.98
2022-12-23T13:30:52.289Z,54.68
2022-12-23T13:33:25.669Z,54.49
2022-12-23T13:36:07.645Z,54.68
2022-12-23T13:38:49.472Z,54.44
2022-12-23T13:41:21.961Z,54.73
2022-12-23T13:43:58.626Z,55.91
2022-12-23T13:46:44.306Z,56.21
2022-12-23T13:49:32.859Z,55.40
2022-12-23T13:52:07.767Z,54.97
2022-12-23T13:54:51.558Z,55.02
2022-12-23T13:58:06.350Z,55.56
2022-12-23T14:00:34.999Z,55.44
2022-12-23T14:03:02.141Z,56.00
2022-12-23T14:05:50.901Z,56.35
2022-12-23T14:08:20.568Z,56.58
2022-12-23T14:10:56.853Z,57.03
2022-12-23T14:13:27.160Z,56.77
2022-12-23T14:16:12.565Z,57.28
2022-12-23T14:19:03.666Z,57.02
2022-12-23T14:21:41.867Z,57.20
2022-12-23T14:24:27.051Z,58.38
2022-12-23T14:27:06.052Z,58.10
2022-12-23T14:29:38.264Z,58.39
2022-12-23T14:32:18.109Z,58.06
2022-12-23T14:35:04.555Z,58.75
2022-12-23T14:37:36.303Z,59.86
2022-12-23T14:40:39.340Z,60.13
2022-12-23T14:43:26.749Z,60.56
2022-12-23T14:46:00.061Z,61.32
2022-12-23T14:48:42.017Z,62.28
2022-12-23T14:51:08.774Z,62.51
2022-12-23T14:53:58.568Z,62.53
2022-12-23T14:56:43.425Z,62.79
2022-12-23T14:59:30.389Z,63.82
2022-12-23T15:02:00.756Z,63.77
2022-12-23T15:04:35.207Z,64.15
2022-12-23T15:07:08.389Z,64.73
2022-12-23T15:09:47.595Z,65.29
2022-12-23T15:12:32.801Z,65.40
2022-12-23T15:15:04.042Z,65.62
2022-12-23T15:17:33.776Z,66.25
2022-12-23T15:20:08.529Z,66.80
2022-12-23T15:22:35.579Z,66.81
2022-12-23T15:25:05.069Z,68.07
2022-12-23T15:27:36.437Z,68.42
2022-12-23T15:30:03.632Z,69.02
2022-12-23T15:32:30.642Z,69.49
2022-12-23T15:35:05.332Z,68.67
2022-12-23T15:37:39.709Z,70.30
2022-12-23T15:40:13.051Z,70.03
2022-12-23T15:42:47.881Z,70.80
2022-12-23T15:45:36.323Z,70.90
2022-12-23T15:48:05.438Z,71.70
2022-12-23T15:50:40.589Z,72.12
2022-12-23T15:53:10.758Z,72.45
2022-12-23T15:55:40.794Z,72.98
2022-12-23T15:58:15.525Z,73.60
2022-12-23T16:00:53.245Z,72.92
2022-12-23T16:03:26.717Z,72.91
2022-12-23T16:05:53.749Z,72.68
2022-12-23T16:08:29.655Z,73.62
2022-12-23T16:10:57.049Z,73.25
2022-12-23T16:13:23.917Z,72.86
2022-12-23T16:15:50.826Z,73.83
2022-12-23T16:18:28.671Z,74.34
2022-12-23T16:20:59.781Z,75.26
2022-12-23T16:23:30.403Z,74.84
2022-12-23T16:26:00.407Z,75.03
2022-12-23T16:28:39.924Z,75.46
2022-12-23T16:31:08.326Z,75.61
2022-12-23T16:33:39.852Z,76.50
2022-12-23T16:36:27.819Z,78.91
2022-12-23T16:39:06.076Z,78.42
2022-12-23T16:41:35.514Z,78.68
2022-12-23T16:44:03.336Z,78.94
2022-12-23T16:46:37.783Z,79.32
2022-12-23T16:49:11.051Z,79.54
2022-12-23T16:51:40.356Z,78.86
2022-12-23T16:54:13.566Z,78.56
2022-12-23T16:56:41.117Z,78.36
2022-12-23T16:59:08.241Z,78.97
2022-12-23T17:01:38.513Z,78.15
2022-12-23T17:04:06.940Z,78.44
2022-12-23T17:06:34.765Z,78.85
2022-12-23T17:09:02.492Z,79.31
2022-12-23T17:11:37.466Z,79.25
2022-12-23T17:14:10.390Z,79.53
2022-12-23T17:16:40.672Z,80.51
2022-12-23T17:19:07.648Z,81.15
2022-12-23T17:21:39.411Z,81.48
2022-12-23T17:24:20.400Z,81.25
2022-12-23T17:26:47.244Z,81.24
2022-12-23T17:29:14.480Z,81.54
2022-12-23T17:31:43.327Z,81.31
2022-12-23T17:34:17.221Z,81.70
2022-12-23T17:36:49.538Z,81.81
2022-12-23T17:39:17.454Z,81.92
2022-12-23T17:41:44.661Z,81.76
2022-12-23T17:44:14.797Z,82.78
2022-12-23T17:46:41.872Z,82.27
2022-12-23T17:49:09.037Z,81.92
2022-12-23T17:51:36.253Z,83.04
2022-12-23T17:54:05.103Z,82.45
2022-12-23T17:56:33.230Z,82.68
2022-12-23T17:59:00.315Z,83.38
2022-12-23T18:01:30.347Z,82.88
2022-12-23T18:04:00.262Z,83.21
2022-12-23T18:06:28.986Z,83.71
2022-12-23T18:08:59.916Z,84.23
2022-12-23T18:11:35.717Z,83.67
2022-12-23T18:14:04.195Z,84.38
2022-12-23T18:16:31.667Z,84.16
2022-12-23T18:18:58.753Z,84.67
2022-12-23T18:21:29.649Z,84.37
2022-12-23T18:23:59.977Z,85.05
2022-12-23T18:26:27.234Z,85.07
2022-12-23T18:28:54.708Z,85.18
2022-12-23T18:31:25.954Z,85.93
2022-12-23T18:33:53.615Z,86.14
2022-12-23T18:36:24.875Z,86.10
2022-12-23T18:38:53.075Z,86.23
2022-12-23T18:41:21.349Z,85.70
2022-12-23T18:43:48.856Z,85.89
2022-12-23T18:46:16.336Z,86.01
2022-12-23T18:48:43.510Z,86.35
2022-12-23T18:51:18.481Z,86.65
2022-12-23T18:53:47.093Z,87.39
2022-12-23T18:56:16.107Z,86.95
2022-12-23T18:58:43.239Z,87.69
2022-12-23T19:01:15.398Z,87.71
2022-12-23T19:03:43.157Z,87.11
2022-12-23T19:06:14.280Z,86.45
2022-12-23T19:08:43.114Z,86.16
2022-12-23T19:11:15.584Z,86.53
2022-12-23T19:13:43.044Z,86.38
2022-12-23T19:16:15.951Z,85.62
2022-12-23T19:18:44.069Z,86.11
2022-12-23T19:21:11.209Z,86.18
2022-12-23T19:23:40.467Z,86.67
2022-12-23T19:26:10.265Z,86.20
2022-12-23T19:28:38.730Z,87.20
2022-12-23T19:31:14.745Z,87.26
2022-12-23T19:33:44.222Z,86.52
2022-12-23T19:36:19.613Z,85.94
2022-12-23T19:38:46.643Z,86.61
2022-12-23T19:41:18.453Z,86.30
2022-12-23T19:43:46.911Z,86.75
2022-12-23T19:46:15.477Z,85.96
2022-12-23T19:48:43.184Z,85.30
2022-12-23T19:51:13.433Z,86.49
2022-12-23T19:53:42.153Z,84.63
2022-12-23T19:56:13.880Z,85.38
2022-12-23T19:58:42.477Z,85.78
2022-12-23T20:01:14.206Z,85.28
2022-12-23T20:03:42.583Z,86.03
2022-12-23T20:06:16.021Z,86.09
2022-12-23T20:08:44.133Z,85.71
2022-12-23T20:11:17.180Z,85.50
2022-12-23T20:13:45.648Z,85.08
2022-12-23T20:16:13.577Z,85.54
2022-12-23T20:18:41.044Z,85.25
2022-12-23T20:21:08.305Z,85.71
2022-12-23T20:23:35.845Z,85.41
2022-12-23T20:26:03.171Z,85.15
2022-12-23T20:28:30.943Z,86.18
2022-12-23T20:31:10.461Z,85.61
2022-12-23T20:33:38.809Z,85.13
2022-12-23T20:36:07.266Z,85.91
2022-12-23T20:38:35.299Z,86.13
2022-12-23T20:41:03.796Z,86.54
2022-12-23T20:43:31.005Z,87.20
2022-12-23T20:45:58.701Z,86.84
2022-12-23T20:48:31.708Z,87.27
2022-12-23T20:51:09.855Z,86.44
2022-12-23T20:53:39.129Z,86.38
2022-12-23T20:56:08.841Z,87.27
2022-12-23T20:58:56.639Z,87.53
2022-12-23T21:01:28.752Z,87.01
2022-12-23T21:03:57.992Z,86.71
2022-12-23T21:06:26.079Z,87.40
2022-12-23T21:08:58.500Z,85.82
2022-12-23T21:11:29.970Z,86.49
2022-12-23T21:14:06.257Z,87.11
2022-12-23T21:16:36.615Z,88.10
2022-12-23T21:19:05.527Z,87.00
2022-12-23T21:21:32.735Z,86.89
2022-12-23T21:24:02.660Z,86.59
2022-12-23T21:26:31.704Z,86.52
2022-12-23T21:29:00.586Z,87.70
2022-12-23T21:31:30.535Z,85.63
2022-12-23T21:33:58.833Z,85.99
2022-12-23T21:36:32.386Z,86.19
2022-12-23T21:39:00.481Z,88.07
2022-12-23T21:41:30.227Z,87.87
2022-12-23T21:43:59.444Z,87.54
2022-12-23T21:46:28.445Z,87.22
2022-12-23T21:48:57.311Z,87.11
2022-12-23T21:51:40.331Z,88.61
2022-12-23T21:54:09.773Z,86.90
2022-12-23T21:56:37.500Z,87.50
2022-12-23T21:59:08.733Z,87.94
2022-12-23T22:01:35.884Z,87.20
2022-12-23T22:04:03.883Z,87.69
2022-12-23T22:06:36.296Z,86.58
2022-12-23T22:09:04.844Z,86.21
2022-12-23T22:11:34.584Z,86.84
2022-12-23T22:14:04.412Z,88.05
2022-12-23T22:16:32.766Z,85.24
2022-12-23T22:19:01.652Z,86.19
2022-12-23T22:21:31.319Z,87.42
2022-12-23T22:23:59.826Z,87.42
2022-12-23T22:26:30.527Z,88.17
2022-12-23T22:29:00.292Z,87.57
2022-12-23T22:33:34.582Z,87.71
2022-12-23T22:36:01.676Z,87.40
2022-12-23T22:38:28.876Z,87.70
2022-12-23T22:40:56.408Z,87.76
2022-12-23T22:43:23.659Z,88.33
2022-12-23T22:45:58.788Z,88.35
2022-12-23T22:48:26.792Z,88.26
2022-12-23T22:51:03.738Z,89.08
2022-12-23T22:53:31.307Z,88.83
2022-12-23T22:56:02.833Z,88.81
2022-12-23T22:58:32.434Z,89.60
2022-12-23T23:01:01.156Z,89.80
2022-12-23T23:03:29.378Z,90.60
2022-12-23T23:06:01.366Z,91.72
2022-12-23T23:08:29.810Z,92.15
2022-12-23T23:11:02.586Z,92.92
2022-12-23T23:13:32.551Z,94.09
2022-12-23T23:16:00.631Z,94.38
2022-12-23T23:18:29.016Z,93.28
2022-12-23T23:20:56.373Z,93.71
2022-12-23T23:23:23.929Z,93.34
2022-12-23T23:25:51.139Z,93.49
2022-12-23T23:28:19.889Z,94.03
2022-12-23T23:30:47.062Z,94.80
2022-12-23T23:33:14.239Z,93.22
2022-12-23T23:35:42.118Z,93.53
2022-12-23T23:38:09.826Z,92.22
2022-12-23T23:40:37.084Z,92.33
2022-12-23T23:43:04.646Z,92.16
2022-12-23T23:45:31.877Z,92.73
2022-12-23T23:47:59.590Z,92.65
2022-12-23T23:50:26.782Z,93.15
2022-12-23T23:52:53.966Z,92.34
2022-12-23T23:55:21.569Z,91.89
2022-12-23T23:57:48.790Z,91.99
